sensor_id;sensor_type;location;lat;lon;timestamp;pressure;altitude;pressure_sealevel;temperature;humidity
7433;BME280;32233;49.500;7.764;2023-05-03T00:01:31;99447.09;;;5.58;93.21
7433;BME280;32233;49.500;7.764;2023-05-03T00:03:58;99439.13;;;5.60;93.67
7433;BME280;32233;49.500;7.764;2023-05-03T00:06:24;99445.38;;;5.77;92.58
7433;BME280;32233;49.500;7.764;2023-05-03T00:08:52;99439.59;;;5.73;91.65
7433;BME280;32233;49.500;7.764;2023-05-03T00:11:18;99439.34;;;5.66;91.17
7433;BME280;32233;49.500;7.764;2023-05-03T00:13:45;99447.00;;;5.50;91.74
7433;BME280;32233;49.500;7.764;2023-05-03T00:16:11;99444.28;;;5.42;91.35
7433;BME280;32233;49.500;7.764;2023-05-03T00:18:38;99432.78;;;5.53;91.00
7433;BME280;32233;49.500;7.764;2023-05-03T00:21:05;99429.19;;;5.54;92.93
7433;BME280;32233;49.500;7.764;2023-05-03T00:23:31;99430.44;;;5.59;92.39
7433;BME280;32233;49.500;7.764;2023-05-03T00:25:58;99423.72;;;5.47;91.70
7433;BME280;32233;49.500;7.764;2023-05-03T00:28:25;99425.91;;;5.52;92.19
7433;BME280;32233;49.500;7.764;2023-05-03T00:30:52;99430.06;;;5.44;93.05
7433;BME280;32233;49.500;7.764;2023-05-03T00:33:18;99427.88;;;5.40;92.48
7433;BME280;32233;49.500;7.764;2023-05-03T00:35:45;99426.84;;;5.51;89.40
7433;BME280;32233;49.500;7.764;2023-05-03T00:38:11;99424.31;;;5.59;89.20
7433;BME280;32233;49.500;7.764;2023-05-03T00:40:40;99422.31;;;5.53;88.47
7433;BME280;32233;49.500;7.764;2023-05-03T00:43:10;99423.41;;;5.50;89.88
7433;BME280;32233;49.500;7.764;2023-05-03T00:45:37;99411.13;;;5.51;88.74
7433;BME280;32233;49.500;7.764;2023-05-03T00:48:03;99402.53;;;5.58;86.94
7433;BME280;32233;49.500;7.764;2023-05-03T00:50:30;99408.38;;;5.52;86.61
7433;BME280;32233;49.500;7.764;2023-05-03T00:52:57;99398.31;;;5.47;89.19
7433;BME280;32233;49.500;7.764;2023-05-03T00:55:23;99402.88;;;5.45;88.19
7433;BME280;32233;49.500;7.764;2023-05-03T00:57:51;99398.88;;;5.41;87.87
7433;BME280;32233;49.500;7.764;2023-05-03T01:00:18;99402.28;;;5.52;87.27
7433;BME280;32233;49.500;7.764;2023-05-03T01:02:45;99393.50;;;5.43;87.49
7433;BME280;32233;49.500;7.764;2023-05-03T01:05:12;99399.53;;;5.53;86.08
7433;BME280;32233;49.500;7.764;2023-05-03T01:10:59;99394.13;;;5.27;88.95
7433;BME280;32233;49.500;7.764;2023-05-03T01:13:40;99391.94;;;5.22;88.22
7433;BME280;32233;49.500;7.764;2023-05-03T01:18:43;99386.81;;;5.31;90.05
7433;BME280;32233;49.500;7.764;2023-05-03T01:21:15;99394.16;;;5.17;89.16
7433;BME280;32233;49.500;7.764;2023-05-03T01:24:02;99383.28;;;5.12;90.05
7433;BME280;32233;49.500;7.764;2023-05-03T01:26:29;99388.34;;;5.14;89.01
7433;BME280;32233;49.500;7.764;2023-05-03T01:28:56;99382.06;;;5.07;89.48
7433;BME280;32233;49.500;7.764;2023-05-03T01:31:47;99382.78;;;4.99;90.98
7433;BME280;32233;49.500;7.764;2023-05-03T01:36:43;99383.31;;;4.93;89.57
7433;BME280;32233;49.500;7.764;2023-05-03T01:39:25;99376.16;;;4.85;90.67
7433;BME280;32233;49.500;7.764;2023-05-03T01:41:52;99374.00;;;4.71;91.50
7433;BME280;32233;49.500;7.764;2023-05-03T01:44:20;99371.13;;;4.74;92.37
7433;BME280;32233;49.500;7.764;2023-05-03T01:46:48;99374.28;;;4.68;91.38
7433;BME280;32233;49.500;7.764;2023-05-03T01:49:15;99374.41;;;4.76;92.57
7433;BME280;32233;49.500;7.764;2023-05-03T01:51:41;99369.88;;;4.68;93.67
7433;BME280;32233;49.500;7.764;2023-05-03T01:54:09;99377.75;;;4.59;94.11
7433;BME280;32233;49.500;7.764;2023-05-03T01:56:37;99378.84;;;4.66;94.87
7433;BME280;32233;49.500;7.764;2023-05-03T01:59:03;99379.69;;;4.57;94.36
7433;BME280;32233;49.500;7.764;2023-05-03T02:01:30;99388.50;;;4.36;93.33
7433;BME280;32233;49.500;7.764;2023-05-03T02:03:57;99391.00;;;4.28;94.32
7433;BME280;32233;49.500;7.764;2023-05-03T02:06:24;99396.66;;;4.23;95.36
7433;BME280;32233;49.500;7.764;2023-05-03T02:08:52;99389.75;;;4.22;97.21
7433;BME280;32233;49.500;7.764;2023-05-03T02:11:19;99399.69;;;4.19;96.85
7433;BME280;32233;49.500;7.764;2023-05-03T02:13:48;99405.44;;;4.03;98.25
7433;BME280;32233;49.500;7.764;2023-05-03T02:16:16;99414.81;;;4.15;96.53
7433;BME280;32233;49.500;7.764;2023-05-03T02:18:43;99407.66;;;4.08;96.81
7433;BME280;32233;49.500;7.764;2023-05-03T02:21:10;99410.25;;;3.88;98.02
7433;BME280;32233;49.500;7.764;2023-05-03T02:23:36;99415.44;;;3.69;100.00
7433;BME280;32233;49.500;7.764;2023-05-03T02:26:03;99415.84;;;3.64;100.00
7433;BME280;32233;49.500;7.764;2023-05-03T02:28:31;99417.66;;;3.33;100.00
7433;BME280;32233;49.500;7.764;2023-05-03T02:30:58;99426.72;;;3.29;100.00
7433;BME280;32233;49.500;7.764;2023-05-03T02:33:25;99417.00;;;3.41;100.00
7433;BME280;32233;49.500;7.764;2023-05-03T02:35:51;99418.47;;;3.34;100.00
7433;BME280;32233;49.500;7.764;2023-05-03T02:38:19;99417.53;;;3.35;100.00
7433;BME280;32233;49.500;7.764;2023-05-03T02:40:46;99415.91;;;3.13;100.00
7433;BME280;32233;49.500;7.764;2023-05-03T02:43:12;99414.03;;;3.25;100.00
7433;BME280;32233;49.500;7.764;2023-05-03T02:45:39;99415.66;;;3.16;100.00
7433;BME280;32233;49.500;7.764;2023-05-03T02:48:06;99405.41;;;3.03;100.00
7433;BME280;32233;49.500;7.764;2023-05-03T02:50:34;99415.28;;;3.00;100.00
7433;BME280;32233;49.500;7.764;2023-05-03T02:53:00;99409.72;;;3.14;100.00
7433;BME280;32233;49.500;7.764;2023-05-03T02:55:27;99408.88;;;3.13;100.00
7433;BME280;32233;49.500;7.764;2023-05-03T02:57:54;99408.13;;;3.02;100.00
7433;BME280;32233;49.500;7.764;2023-05-03T03:00:21;99414.03;;;2.94;100.00
7433;BME280;32233;49.500;7.764;2023-05-03T03:02:48;99404.69;;;2.70;100.00
7433;BME280;32233;49.500;7.764;2023-05-03T03:05:15;99408.94;;;2.92;100.00
7433;BME280;32233;49.500;7.764;2023-05-03T03:07:46;99410.81;;;3.11;100.00
7433;BME280;32233;49.500;7.764;2023-05-03T03:10:12;99412.69;;;3.00;100.00
7433;BME280;32233;49.500;7.764;2023-05-03T03:12:39;99414.13;;;3.13;100.00
7433;BME280;32233;49.500;7.764;2023-05-03T03:15:09;99409.63;;;2.94;100.00
7433;BME280;32233;49.500;7.764;2023-05-03T03:17:36;99398.91;;;2.97;100.00
7433;BME280;32233;49.500;7.764;2023-05-03T03:20:09;99410.09;;;2.58;100.00
7433;BME280;32233;49.500;7.764;2023-05-03T03:22:42;99408.34;;;2.26;100.00
7433;BME280;32233;49.500;7.764;2023-05-03T03:25:10;99410.91;;;2.37;100.00
7433;BME280;32233;49.500;7.764;2023-05-03T03:27:37;99404.69;;;2.70;100.00
7433;BME280;32233;49.500;7.764;2023-05-03T03:30:06;99406.19;;;2.73;100.00
7433;BME280;32233;49.500;7.764;2023-05-03T03:32:37;99401.94;;;2.72;100.00
7433;BME280;32233;49.500;7.764;2023-05-03T03:35:09;99399.00;;;2.86;100.00
7433;BME280;32233;49.500;7.764;2023-05-03T03:37:36;99400.84;;;2.95;100.00
7433;BME280;32233;49.500;7.764;2023-05-03T03:40:04;99398.22;;;2.95;100.00
7433;BME280;32233;49.500;7.764;2023-05-03T03:42:31;99393.72;;;2.56;100.00
7433;BME280;32233;49.500;7.764;2023-05-03T03:44:58;99390.47;;;2.21;100.00
7433;BME280;32233;49.500;7.764;2023-05-03T03:47:24;99394.94;;;2.19;100.00
7433;BME280;32233;49.500;7.764;2023-05-03T03:49:52;99394.44;;;2.37;100.00
7433;BME280;32233;49.500;7.764;2023-05-03T03:52:18;99400.97;;;2.31;100.00
7433;BME280;32233;49.500;7.764;2023-05-03T03:54:45;99393.06;;;2.21;100.00
7433;BME280;32233;49.500;7.764;2023-05-03T03:57:12;99394.66;;;2.13;100.00
7433;BME280;32233;49.500;7.764;2023-05-03T03:59:39;99397.41;;;2.00;100.00
7433;BME280;32233;49.500;7.764;2023-05-03T04:02:06;99399.88;;;2.02;100.00
7433;BME280;32233;49.500;7.764;2023-05-03T04:04:33;99400.53;;;2.15;100.00
7433;BME280;32233;49.500;7.764;2023-05-03T04:07:00;99394.38;;;2.16;100.00
7433;BME280;32233;49.500;7.764;2023-05-03T04:09:27;99403.06;;;2.16;100.00
7433;BME280;32233;49.500;7.764;2023-05-03T04:11:54;99404.75;;;1.95;100.00
7433;BME280;32233;49.500;7.764;2023-05-03T04:14:21;99403.72;;;1.86;100.00
7433;BME280;32233;49.500;7.764;2023-05-03T04:16:48;99402.75;;;1.87;100.00
7433;BME280;32233;49.500;7.764;2023-05-03T04:19:15;99397.88;;;2.05;100.00
7433;BME280;32233;49.500;7.764;2023-05-03T04:21:44;99407.88;;;1.78;100.00
7433;BME280;32233;49.500;7.764;2023-05-03T04:24:14;99409.34;;;2.03;100.00
7433;BME280;32233;49.500;7.764;2023-05-03T04:26:41;99409.66;;;1.88;100.00
7433;BME280;32233;49.500;7.764;2023-05-03T04:29:15;99404.31;;;1.90;100.00
7433;BME280;32233;49.500;7.764;2023-05-03T04:31:43;99404.81;;;1.72;100.00
7433;BME280;32233;49.500;7.764;2023-05-03T04:34:10;99402.16;;;1.95;100.00
7433;BME280;32233;49.500;7.764;2023-05-03T04:36:43;99402.25;;;2.05;100.00
7433;BME280;32233;49.500;7.764;2023-05-03T04:39:15;99409.50;;;2.01;100.00
7433;BME280;32233;49.500;7.764;2023-05-03T04:41:44;99404.31;;;2.22;100.00
7433;BME280;32233;49.500;7.764;2023-05-03T04:44:11;99410.16;;;2.67;100.00
7433;BME280;32233;49.500;7.764;2023-05-03T04:46:41;99404.69;;;2.70;100.00
7433;BME280;32233;49.500;7.764;2023-05-03T04:49:08;99406.72;;;2.67;100.00
7433;BME280;32233;49.500;7.764;2023-05-03T04:51:35;99415.75;;;2.63;100.00
7433;BME280;32233;49.500;7.764;2023-05-03T04:54:02;99416.72;;;2.62;100.00
7433;BME280;32233;49.500;7.764;2023-05-03T04:56:28;99405.56;;;2.60;100.00
7433;BME280;32233;49.500;7.764;2023-05-03T04:59:06;99401.91;;;2.93;100.00
7433;BME280;32233;49.500;7.764;2023-05-03T05:01:32;99398.38;;;2.94;100.00
7433;BME280;32233;49.500;7.764;2023-05-03T05:04:01;99392.13;;;3.16;100.00
7433;BME280;32233;49.500;7.764;2023-05-03T05:06:36;99390.69;;;3.33;100.00
7433;BME280;32233;49.500;7.764;2023-05-03T05:09:05;99393.78;;;3.57;100.00
7433;BME280;32233;49.500;7.764;2023-05-03T05:11:33;99393.72;;;3.78;100.00
7433;BME280;32233;49.500;7.764;2023-05-03T05:14:00;99394.69;;;3.77;100.00
7433;BME280;32233;49.500;7.764;2023-05-03T05:16:26;99399.91;;;3.67;100.00
7433;BME280;32233;49.500;7.764;2023-05-03T05:18:53;99402.13;;;3.82;100.00
7433;BME280;32233;49.500;7.764;2023-05-03T05:21:23;99398.81;;;3.99;100.00
7433;BME280;32233;49.500;7.764;2023-05-03T05:23:49;99404.50;;;5.09;97.14
7433;BME280;32233;49.500;7.764;2023-05-03T05:26:16;99397.16;;;6.85;84.12
7433;BME280;32233;49.500;7.764;2023-05-03T05:28:43;99397.50;;;7.92;76.97
7433;BME280;32233;49.500;7.764;2023-05-03T05:31:09;99396.72;;;8.08;74.24
7433;BME280;32233;49.500;7.764;2023-05-03T05:33:37;99396.63;;;8.67;69.38
7433;BME280;32233;49.500;7.764;2023-05-03T05:36:04;99400.72;;;7.70;76.21
7433;BME280;32233;49.500;7.764;2023-05-03T05:38:32;99402.81;;;8.17;73.57
7433;BME280;32233;49.500;7.764;2023-05-03T05:40:59;99397.56;;;8.99;68.68
7433;BME280;32233;49.500;7.764;2023-05-03T05:43:26;99394.03;;;9.70;63.67
7433;BME280;32233;49.500;7.764;2023-05-03T05:45:53;99392.81;;;9.81;60.48
7433;BME280;32233;49.500;7.764;2023-05-03T05:48:21;99386.34;;;10.98;58.57
7433;BME280;32233;49.500;7.764;2023-05-03T05:50:48;99383.25;;;11.39;58.14
7433;BME280;32233;49.500;7.764;2023-05-03T05:53:14;99372.09;;;12.31;53.43
7433;BME280;32233;49.500;7.764;2023-05-03T05:55:48;99372.13;;;11.44;54.31
7433;BME280;32233;49.500;7.764;2023-05-03T05:58:15;99379.78;;;11.09;58.34
7433;BME280;32233;49.500;7.764;2023-05-03T06:00:48;99370.44;;;11.57;53.26
7433;BME280;32233;49.500;7.764;2023-05-03T06:03:15;99367.38;;;13.04;51.27
7433;BME280;32233;49.500;7.764;2023-05-03T06:05:43;99372.84;;;12.46;50.88
7433;BME280;32233;49.500;7.764;2023-05-03T06:08:10;99378.88;;;14.00;48.04
7433;BME280;32233;49.500;7.764;2023-05-03T06:10:37;99378.78;;;14.61;46.18
7433;BME280;32233;49.500;7.764;2023-05-03T06:13:03;99386.34;;;13.77;47.79
7433;BME280;32233;49.500;7.764;2023-05-03T06:15:32;99382.38;;;14.27;46.19
7433;BME280;32233;49.500;7.764;2023-05-03T06:17:58;99386.50;;;15.16;45.86
7433;BME280;32233;49.500;7.764;2023-05-03T06:20:25;99391.84;;;15.09;45.33
7433;BME280;32233;49.500;7.764;2023-05-03T06:22:52;99388.97;;;14.98;43.93
7433;BME280;32233;49.500;7.764;2023-05-03T06:25:22;99399.38;;;15.32;45.33
7433;BME280;32233;49.500;7.764;2023-05-03T06:27:52;99402.25;;;14.45;46.48
7433;BME280;32233;49.500;7.764;2023-05-03T06:30:23;99401.50;;;15.82;42.32
7433;BME280;32233;49.500;7.764;2023-05-03T06:32:51;99399.25;;;15.79;42.83
7433;BME280;32233;49.500;7.764;2023-05-03T06:35:19;99402.06;;;15.06;43.93
7433;BME280;32233;49.500;7.764;2023-05-03T06:37:47;99400.03;;;15.93;42.75
7433;BME280;32233;49.500;7.764;2023-05-03T06:40:15;99405.16;;;16.26;43.00
7433;BME280;32233;49.500;7.764;2023-05-03T06:42:41;99417.81;;;15.99;41.76
7433;BME280;32233;49.500;7.764;2023-05-03T06:45:15;99410.44;;;16.32;42.21
7433;BME280;32233;49.500;7.764;2023-05-03T06:47:43;99405.97;;;14.97;44.83
7433;BME280;32233;49.500;7.764;2023-05-03T06:50:10;99403.47;;;15.28;44.45
7433;BME280;32233;49.500;7.764;2023-05-03T06:52:37;99393.91;;;16.80;41.95
7433;BME280;32233;49.500;7.764;2023-05-03T06:55:03;99397.69;;;16.41;47.28
7433;BME280;32233;49.500;7.764;2023-05-03T06:57:30;99394.13;;;17.04;44.74
7433;BME280;32233;49.500;7.764;2023-05-03T06:59:57;99391.31;;;16.74;41.21
7433;BME280;32233;49.500;7.764;2023-05-03T07:02:24;99390.47;;;16.98;40.47
7433;BME280;32233;49.500;7.764;2023-05-03T07:04:52;99380.41;;;17.37;40.33
7433;BME280;32233;49.500;7.764;2023-05-03T07:07:18;99379.97;;;18.37;37.86
7433;BME280;32233;49.500;7.764;2023-05-03T07:09:45;99391.47;;;17.59;39.64
7433;BME280;32233;49.500;7.764;2023-05-03T07:12:12;99389.78;;;17.28;40.61
7433;BME280;32233;49.500;7.764;2023-05-03T07:14:38;99381.69;;;18.31;40.10
7433;BME280;32233;49.500;7.764;2023-05-03T07:17:05;99372.53;;;17.79;39.39
7433;BME280;32233;49.500;7.764;2023-05-03T07:19:33;99383.34;;;16.92;46.75
7433;BME280;32233;49.500;7.764;2023-05-03T07:21:59;99374.41;;;17.78;42.07
7433;BME280;32233;49.500;7.764;2023-05-03T07:24:28;99373.88;;;18.72;38.70
7433;BME280;32233;49.500;7.764;2023-05-03T07:26:55;99384.81;;;18.28;37.65
7433;BME280;32233;49.500;7.764;2023-05-03T07:29:23;99374.25;;;18.75;38.21
7433;BME280;32233;49.500;7.764;2023-05-03T07:31:49;99377.84;;;18.93;38.00
7433;BME280;32233;49.500;7.764;2023-05-03T07:34:21;99372.44;;;18.16;39.19
7433;BME280;32233;49.500;7.764;2023-05-03T07:36:48;99376.22;;;18.80;38.71
7433;BME280;32233;49.500;7.764;2023-05-03T07:39:14;99385.66;;;18.83;38.75
7433;BME280;32233;49.500;7.764;2023-05-03T07:41:42;99373.50;;;18.68;41.28
7433;BME280;32233;49.500;7.764;2023-05-03T07:44:09;99373.31;;;18.93;37.06
7433;BME280;32233;49.500;7.764;2023-05-03T07:46:35;99371.03;;;18.55;38.47
7433;BME280;32233;49.500;7.764;2023-05-03T07:49:03;99366.63;;;18.61;38.69
7433;BME280;32233;49.500;7.764;2023-05-03T07:51:37;99365.16;;;19.23;37.43
7433;BME280;32233;49.500;7.764;2023-05-03T07:54:04;99366.66;;;18.84;37.53
7433;BME280;32233;49.500;7.764;2023-05-03T07:56:31;99369.19;;;17.65;39.77
7433;BME280;32233;49.500;7.764;2023-05-03T07:58:58;99372.97;;;18.36;38.56
7433;BME280;32233;49.500;7.764;2023-05-03T08:01:36;99370.16;;;17.89;39.92
7433;BME280;32233;49.500;7.764;2023-05-03T08:04:03;99367.78;;;18.11;39.41
7433;BME280;32233;49.500;7.764;2023-05-03T08:06:31;99370.59;;;19.40;38.04
7433;BME280;32233;49.500;7.764;2023-05-03T08:08:58;99376.78;;;17.50;40.47
7433;BME280;32233;49.500;7.764;2023-05-03T08:11:26;99371.81;;;18.02;41.35
7433;BME280;32233;49.500;7.764;2023-05-03T08:13:52;99365.97;;;19.24;38.01
7433;BME280;32233;49.500;7.764;2023-05-03T08:16:19;99366.38;;;19.68;36.94
7433;BME280;32233;49.500;7.764;2023-05-03T08:18:49;99369.91;;;17.91;39.75
7433;BME280;32233;49.500;7.764;2023-05-03T08:21:40;99369.41;;;18.12;40.13
7433;BME280;32233;49.500;7.764;2023-05-03T08:24:08;99374.16;;;16.56;43.20
7433;BME280;32233;49.500;7.764;2023-05-03T08:26:36;99379.69;;;16.30;43.67
7433;BME280;32233;49.500;7.764;2023-05-03T08:29:03;99374.59;;;16.53;43.84
7433;BME280;32233;49.500;7.764;2023-05-03T08:31:29;99373.88;;;15.70;45.06
7433;BME280;32233;49.500;7.764;2023-05-03T08:33:56;99376.38;;;15.45;47.75
7433;BME280;32233;49.500;7.764;2023-05-03T08:36:23;99382.53;;;15.45;45.44
7433;BME280;32233;49.500;7.764;2023-05-03T08:38:49;99373.28;;;15.54;46.58
7433;BME280;32233;49.500;7.764;2023-05-03T08:43:53;99368.31;;;15.71;46.78
7433;BME280;32233;49.500;7.764;2023-05-03T08:46:20;99376.16;;;15.46;46.63
7433;BME280;32233;49.500;7.764;2023-05-03T08:48:48;99373.44;;;14.95;46.98
7433;BME280;32233;49.500;7.764;2023-05-03T08:51:16;99370.56;;;14.96;47.70
7433;BME280;32233;49.500;7.764;2023-05-03T08:53:43;99364.69;;;15.46;47.31
7433;BME280;32233;49.500;7.764;2023-05-03T08:56:11;99366.28;;;15.60;46.20
7433;BME280;32233;49.500;7.764;2023-05-03T08:58:41;99363.50;;;15.93;45.50
7433;BME280;32233;49.500;7.764;2023-05-03T09:01:08;99365.09;;;15.49;45.67
7433;BME280;32233;49.500;7.764;2023-05-03T09:03:35;99365.78;;;15.90;45.41
7433;BME280;32233;49.500;7.764;2023-05-03T09:06:18;99373.41;;;15.08;48.67
7433;BME280;32233;49.500;7.764;2023-05-03T09:08:45;99371.25;;;15.50;47.22
7433;BME280;32233;49.500;7.764;2023-05-03T09:11:22;99361.78;;;15.54;47.14
7433;BME280;32233;49.500;7.764;2023-05-03T09:13:50;99364.34;;;15.29;47.68
7433;BME280;32233;49.500;7.764;2023-05-03T09:16:23;99367.59;;;15.38;48.25
7433;BME280;32233;49.500;7.764;2023-05-03T09:19:00;99363.28;;;15.43;47.75
7433;BME280;32233;49.500;7.764;2023-05-03T09:21:32;99363.19;;;15.63;46.38
7433;BME280;32233;49.500;7.764;2023-05-03T09:23:59;99357.56;;;15.91;47.71
7433;BME280;32233;49.500;7.764;2023-05-03T09:26:32;99356.28;;;16.00;46.09
7433;BME280;32233;49.500;7.764;2023-05-03T09:29:05;99361.78;;;16.05;48.08
7433;BME280;32233;49.500;7.764;2023-05-03T09:31:36;99357.22;;;15.81;48.69
7433;BME280;32233;49.500;7.764;2023-05-03T09:34:26;99349.94;;;15.50;47.38
7433;BME280;32233;49.500;7.764;2023-05-03T09:37:00;99351.75;;;15.56;47.96
7433;BME280;32233;49.500;7.764;2023-05-03T09:39:28;99352.31;;;15.71;47.54
7433;BME280;32233;49.500;7.764;2023-05-03T09:41:59;99356.03;;;15.64;47.61
7433;BME280;32233;49.500;7.764;2023-05-03T09:44:48;99345.47;;;15.30;49.14
7433;BME280;32233;49.500;7.764;2023-05-03T09:47:19;99350.97;;;16.00;49.05
7433;BME280;32233;49.500;7.764;2023-05-03T09:49:51;99347.75;;;15.85;48.15
7433;BME280;32233;49.500;7.764;2023-05-03T09:52:23;99345.78;;;15.67;47.74
7433;BME280;32233;49.500;7.764;2023-05-03T09:54:54;99349.28;;;16.06;48.54
7433;BME280;32233;49.500;7.764;2023-05-03T09:57:22;99348.53;;;15.41;49.31
7433;BME280;32233;49.500;7.764;2023-05-03T10:00:11;99350.78;;;15.44;48.40
7433;BME280;32233;49.500;7.764;2023-05-03T10:02:40;99353.41;;;16.02;46.90
7433;BME280;32233;49.500;7.764;2023-05-03T10:05:10;99341.84;;;16.08;48.00
7433;BME280;32233;49.500;7.764;2023-05-03T10:07:43;99334.63;;;16.47;46.95
7433;BME280;32233;49.500;7.764;2023-05-03T10:10:18;99330.66;;;16.81;46.41
7433;BME280;32233;49.500;7.764;2023-05-03T10:12:48;99329.13;;;16.42;46.75
7433;BME280;32233;49.500;7.764;2023-05-03T10:15:20;99330.50;;;16.69;46.66
7433;BME280;32233;49.500;7.764;2023-05-03T10:17:51;99341.13;;;16.26;47.27
7433;BME280;32233;49.500;7.764;2023-05-03T10:20:28;99337.81;;;16.30;48.57
7433;BME280;32233;49.500;7.764;2023-05-03T10:23:11;99332.34;;;16.75;46.99
7433;BME280;32233;49.500;7.764;2023-05-03T10:28:53;99336.47;;;16.21;48.25
7433;BME280;32233;49.500;7.764;2023-05-03T10:31:46;99336.19;;;16.29;46.45
7433;BME280;32233;49.500;7.764;2023-05-03T10:34:21;99333.44;;;16.11;45.97
7433;BME280;32233;49.500;7.764;2023-05-03T10:36:51;99336.19;;;15.98;46.63
7433;BME280;32233;49.500;7.764;2023-05-03T10:39:27;99321.78;;;16.37;46.35
7433;BME280;32233;49.500;7.764;2023-05-03T10:42:08;99317.53;;;17.34;44.32
7433;BME280;32233;49.500;7.764;2023-05-03T10:44:50;99323.34;;;16.70;45.62
7433;BME280;32233;49.500;7.764;2023-05-03T10:47:19;99307.59;;;17.05;43.72
7433;BME280;32233;49.500;7.764;2023-05-03T10:53:03;99305.72;;;17.42;43.21
7433;BME280;32233;49.500;7.764;2023-05-03T10:55:35;99299.88;;;17.33;44.20
7433;BME280;32233;49.500;7.764;2023-05-03T10:58:09;99293.72;;;17.33;45.24
7433;BME280;32233;49.500;7.764;2023-05-03T11:00:40;99296.22;;;16.73;45.09
7433;BME280;32233;49.500;7.764;2023-05-03T11:03:32;99304.19;;;16.54;45.30
7433;BME280;32233;49.500;7.764;2023-05-03T11:06:08;99283.22;;;17.50;45.20
7433;BME280;32233;49.500;7.764;2023-05-03T11:08:38;99289.84;;;17.29;43.51
7433;BME280;32233;49.500;7.764;2023-05-03T11:11:10;99280.06;;;18.01;43.11
7433;BME280;32233;49.500;7.764;2023-05-03T11:13:52;99276.03;;;18.34;41.72
7433;BME280;32233;49.500;7.764;2023-05-03T11:16:37;99280.94;;;18.61;41.41
7433;BME280;32233;49.500;7.764;2023-05-03T11:19:17;99286.38;;;17.58;41.44
7433;BME280;32233;49.500;7.764;2023-05-03T11:21:46;99279.88;;;18.38;38.20
7433;BME280;32233;49.500;7.764;2023-05-03T11:24:17;99269.69;;;18.70;39.07
7433;BME280;32233;49.500;7.764;2023-05-03T11:26:45;99265.06;;;19.06;39.09
7433;BME280;32233;49.500;7.764;2023-05-03T11:29:23;99258.09;;;19.74;38.20
7433;BME280;32233;49.500;7.764;2023-05-03T11:31:54;99256.41;;;19.68;38.25
7433;BME280;32233;49.500;7.764;2023-05-03T11:34:21;99255.78;;;20.28;39.85
7433;BME280;32233;49.500;7.764;2023-05-03T11:36:53;99253.19;;;20.67;38.17
7433;BME280;32233;49.500;7.764;2023-05-03T11:39:26;99248.94;;;20.93;36.78
7433;BME280;32233;49.500;7.764;2023-05-03T11:42:03;99245.69;;;22.16;36.47
7433;BME280;32233;49.500;7.764;2023-05-03T11:44:33;99242.38;;;22.83;34.69
7433;BME280;32233;49.500;7.764;2023-05-03T11:47:09;99237.59;;;23.94;33.12
7433;BME280;32233;49.500;7.764;2023-05-03T11:49:56;99231.09;;;23.75;33.56
7433;BME280;32233;49.500;7.764;2023-05-03T11:52:24;99235.16;;;24.33;31.02
7433;BME280;32233;49.500;7.764;2023-05-03T11:54:51;99223.81;;;23.95;32.98
7433;BME280;32233;49.500;7.764;2023-05-03T11:57:18;99221.69;;;23.72;31.46
7433;BME280;32233;49.500;7.764;2023-05-03T11:59:45;99221.38;;;23.84;33.03
7433;BME280;32233;49.500;7.764;2023-05-03T12:02:14;99215.41;;;24.53;30.78
7433;BME280;32233;49.500;7.764;2023-05-03T12:04:42;99218.38;;;24.67;31.07
7433;BME280;32233;49.500;7.764;2023-05-03T12:07:12;99222.41;;;23.52;32.39
7433;BME280;32233;49.500;7.764;2023-05-03T12:09:43;99217.06;;;23.67;30.81
7433;BME280;32233;49.500;7.764;2023-05-03T12:12:21;99226.38;;;22.24;32.57
7433;BME280;32233;49.500;7.764;2023-05-03T12:15:01;99222.41;;;22.37;34.18
7433;BME280;32233;49.500;7.764;2023-05-03T12:17:38;99226.28;;;22.51;34.23
7433;BME280;32233;49.500;7.764;2023-05-03T12:20:20;99213.19;;;24.81;31.41
7433;BME280;32233;49.500;7.764;2023-05-03T12:22:51;99207.16;;;23.00;30.86
7433;BME280;32233;49.500;7.764;2023-05-03T12:25:24;99206.00;;;24.45;31.65
7433;BME280;32233;49.500;7.764;2023-05-03T12:27:56;99206.44;;;22.67;32.95
7433;BME280;32233;49.500;7.764;2023-05-03T12:30:29;99207.63;;;22.87;34.17
7433;BME280;32233;49.500;7.764;2023-05-03T12:32:59;99208.97;;;24.39;30.95
7433;BME280;32233;49.500;7.764;2023-05-03T12:35:29;99207.56;;;23.55;31.75
7433;BME280;32233;49.500;7.764;2023-05-03T12:37:59;99196.34;;;24.99;30.40
7433;BME280;32233;49.500;7.764;2023-05-03T12:40:28;99182.69;;;25.30;29.09
7433;BME280;32233;49.500;7.764;2023-05-03T12:43:02;99180.88;;;24.14;30.26
7433;BME280;32233;49.500;7.764;2023-05-03T12:45:28;99199.53;;;23.90;30.20
7433;BME280;32233;49.500;7.764;2023-05-03T12:48:00;99187.72;;;22.93;33.62
7433;BME280;32233;49.500;7.764;2023-05-03T12:50:28;99192.47;;;23.48;31.17
7433;BME280;32233;49.500;7.764;2023-05-03T12:52:57;99184.66;;;24.03;30.25
7433;BME280;32233;49.500;7.764;2023-05-03T12:55:28;99188.34;;;22.58;32.51
7433;BME280;32233;49.500;7.764;2023-05-03T12:58:00;99185.13;;;23.23;32.53
7433;BME280;32233;49.500;7.764;2023-05-03T13:00:30;99180.91;;;23.99;31.85
7433;BME280;32233;49.500;7.764;2023-05-03T13:03:02;99178.44;;;22.73;33.28
7433;BME280;32233;49.500;7.764;2023-05-03T13:05:32;99176.13;;;22.40;33.46
7433;BME280;32233;49.500;7.764;2023-05-03T13:08:02;99176.50;;;23.27;31.71
7433;BME280;32233;49.500;7.764;2023-05-03T13:10:36;99178.75;;;21.92;33.60
7433;BME280;32233;49.500;7.764;2023-05-03T13:13:03;99160.63;;;21.83;34.07
7433;BME280;32233;49.500;7.764;2023-05-03T13:15:30;99163.09;;;22.21;33.42
7433;BME280;32233;49.500;7.764;2023-05-03T13:17:56;99164.75;;;22.33;34.11
7433;BME280;32233;49.500;7.764;2023-05-03T13:20:26;99162.81;;;22.70;34.54
7433;BME280;32233;49.500;7.764;2023-05-03T13:22:53;99159.88;;;22.24;34.22
7433;BME280;32233;49.500;7.764;2023-05-03T13:25:19;99153.13;;;21.31;34.71
7433;BME280;32233;49.500;7.764;2023-05-03T13:27:46;99149.34;;;21.86;33.89
7433;BME280;32233;49.500;7.764;2023-05-03T13:30:15;99140.06;;;21.71;35.25
7433;BME280;32233;49.500;7.764;2023-05-03T13:32:42;99150.50;;;21.95;33.93
7433;BME280;32233;49.500;7.764;2023-05-03T13:35:08;99138.41;;;20.84;36.28
7433;BME280;32233;49.500;7.764;2023-05-03T13:37:35;99136.75;;;21.05;35.60
7433;BME280;32233;49.500;7.764;2023-05-03T13:40:02;99144.09;;;19.43;37.88
7433;BME280;32233;49.500;7.764;2023-05-03T13:42:28;99143.50;;;19.69;38.38